Briz — UBZP — position and weather

sailwx.info

Track history (hours):
 
Tides and Currents Weather Stations Pressure Air Temp Water Temp Dewpoint Dewpoint Depression Visibility Wind Speed Wind Dir Waves Ship Positions

Briz

Last reported at 2018-Jun-19 06:57 UTC. Time now 2018-Jun-19 06:59 UTC.
Position N 44°28' E 038°04'.

Length 28 m; draft 2 m.

Type: Fishing. MMSI: 273330120.

Date/timePositionNaut miles runAvg speedWind from/ knotsBaromVisibWave heightAir tempDewpointWater temp
2018-Jun-19 06:57N 44°28' E 038°04'2 3.2
2018-Jun-19 06:29N 44°27' E 038°05'0 0.3
2018-Jun-19 05:55N 44°26' E 038°06'0 0.7
2018-Jun-19 05:30N 44°26' E 038°06'2 3.0
2018-Jun-19 05:00N 44°27' E 038°04'2 3.1
2018-Jun-19 04:29N 44°28' E 038°02'1 3.1
2018-Jun-19 04:00N 44°30' E 038°01'2 3.1
2018-Jun-19 03:31N 44°31' E 037°60'2 3.0
2018-Jun-19 03:01N 44°32' E 037°58'3 6.7
2018-Jun-19 02:30N 44°34' E 037°55'5 9.7
2018-Jun-19 02:00N 44°38' E 037°51'3 5.8
2018-Jun-19 01:30N 44°40' E 037°48'0 0.0
2018-Jun-19 01:00N 44°40' E 037°48'0 0.0
2018-Jun-19 00:30N 44°40' E 037°48'0 0.0
2018-Jun-19 00:01N 44°40' E 037°48'0 0.0
2018-Jun-18 23:31N 44°40' E 037°48'0 0.0
2018-Jun-18 23:01N 44°40' E 037°48'0 0.0
2018-Jun-18 22:30N 44°40' E 037°48'0 0.0
2018-Jun-18 22:00N 44°40' E 037°48'0 0.0
2018-Jun-18 21:30N 44°40' E 037°48'0 0.0
2018-Jun-18 21:00N 44°40' E 037°48'0 0.0
2018-Jun-18 20:29N 44°40' E 037°48'0 0.0
2018-Jun-18 20:00N 44°40' E 037°48'0 0.0
2018-Jun-18 19:30N 44°40' E 037°48'2 3.6
2018-Jun-18 19:00N 44°39' E 037°49'5 9.9
2018-Jun-18 18:30N 44°35' E 037°54'510.2
2018-Jun-18 17:59N 44°32' E 037°60'510.1
2018-Jun-18 17:30N 44°28' E 038°05'5 9.8
2018-Jun-18 17:00N 44°25' E 038°10'4 4.4
2018-Jun-18 16:02N 44°23' E 038°15'0 2.1
2018-Jun-18 16:00N 44°23' E 038°15'2 3.0
2018-Jun-18 15:30N 44°23' E 038°17'5 1.9
2018-Jun-18 13:02N 44°21' E 038°24'1 1.5
2018-Jun-18 12:33N 44°22' E 038°23'2 3.2
2018-Jun-18 12:04N 44°22' E 038°21'2 3.2
2018-Jun-18 11:22N 44°23' E 038°18'3 3.4
2018-Jun-18 10:35N 44°24' E 038°14'0 3.5
2018-Jun-18 10:30N 44°24' E 038°14'4 7.4
2018-Jun-18 10:00N 44°25' E 038°09'5 9.4
2018-Jun-18 09:30N 44°29' E 038°05'1 1.9
2018-Jun-18 09:00N 44°28' E 038°04'2 3.1
2018-Jun-18 08:29N 44°27' E 038°05'2 3.1
2018-Jun-18 08:00N 44°26' E 038°07'3 3.0
2018-Jun-18 07:08N 44°24' E 038°10'0 1.0
2018-Jun-18 06:55N 44°24' E 038°10'2 4.2
2018-Jun-18 06:30N 44°25' E 038°08'1 2.4
2018-Jun-18 05:59N 44°26' E 038°07'2 3.2
2018-Jun-18 05:30N 44°27' E 038°05'2 3.2
2018-Jun-18 05:00N 44°28' E 038°04'2 3.2
2018-Jun-18 04:30N 44°29' E 038°02'2 3.1
2018-Jun-18 03:59N 44°30' E 038°01'1 3.1
2018-Jun-18 03:30N 44°31' E 037°59'2 3.3
2018-Jun-18 03:00N 44°32' E 037°57'5 9.5
2018-Jun-18 02:30N 44°36' E 037°53'5 9.4
2018-Jun-18 02:00N 44°40' E 037°49'1 1.6
2018-Jun-18 01:30N 44°40' E 037°48'0 0.0
2018-Jun-18 01:00N 44°40' E 037°48'0 0.0
2018-Jun-18 00:30N 44°40' E 037°48'0 0.0
2018-Jun-18 00:00N 44°40' E 037°48'0 0.0
2018-Jun-17 23:31N 44°40' E 037°48'0 0.0
2018-Jun-17 23:00N 44°40' E 037°48'0 0.0
2018-Jun-17 22:30N 44°40' E 037°48'0 0.0
2018-Jun-17 22:00N 44°40' E 037°48'0 0.0
2018-Jun-17 21:30N 44°40' E 037°48'0 0.0
2018-Jun-17 21:00N 44°40' E 037°48'0 0.0
2018-Jun-17 20:30N 44°40' E 037°48'0 0.0
2018-Jun-17 20:00N 44°40' E 037°48'0 0.0
2018-Jun-17 19:30N 44°40' E 037°48'0 0.0
2018-Jun-17 19:00N 44°40' E 037°48'0 0.0
2018-Jun-17 18:30N 44°40' E 037°48'0 0.0
2018-Jun-17 18:00N 44°40' E 037°48'0 0.0
2018-Jun-17 17:30N 44°40' E 037°48'4 7.8
2018-Jun-17 17:00N 44°37' E 037°52'510.0
2018-Jun-17 16:30N 44°34' E 037°56'5 9.0
2018-Jun-17 16:00N 44°30' E 038°01'1 1.7
2018-Jun-17 15:29N 44°30' E 038°02'2 3.3
2018-Jun-17 15:00N 44°29' E 038°03'2 3.3
2018-Jun-17 14:30N 44°27' E 038°05'0 0.1
2018-Jun-17 13:57N 44°27' E 038°05'1 1.8
2018-Jun-17 13:30N 44°28' E 038°04'2 3.0
2018-Jun-17 13:00N 44°29' E 038°03'2 3.0
2018-Jun-17 12:30N 44°30' E 038°01'2 3.1
2018-Jun-17 12:00N 44°31' E 037°60'1 2.0
2018-Jun-17 11:30N 44°30' E 038°00'2 3.2
2018-Jun-17 11:00N 44°29' E 038°02'2 3.5
2018-Jun-17 10:22N 44°27' E 038°04'0 0.8
2018-Jun-17 09:59N 44°28' E 038°04'0 0.3
2018-Jun-17 09:30N 44°28' E 038°04'0 0.7
2018-Jun-17 08:56N 44°28' E 038°03'1 3.0
2018-Jun-17 08:30N 44°29' E 038°02'2 3.0
2018-Jun-17 08:00N 44°30' E 038°01'1 3.0
2018-Jun-17 07:30N 44°31' E 037°60'1 1.5
2018-Jun-17 07:00N 44°32' E 037°59'2 3.3
2018-Jun-17 06:30N 44°31' E 038°01'2 3.3
2018-Jun-17 06:00N 44°29' E 038°02'0 0.4
2018-Jun-17 05:30N 44°29' E 038°02'1 1.7
2018-Jun-17 05:00N 44°30' E 038°01'2 3.0
2018-Jun-17 04:31N 44°31' E 037°59'2 3.0
2018-Jun-17 04:00N 44°32' E 037°58'2 3.1
2018-Jun-17 03:30N 44°33' E 037°56'2 3.1
2018-Jun-17 03:00N 44°34' E 037°54'2 3.1
2018-Jun-17 02:30N 44°34' E 037°52'4 8.0
2018-Jun-17 02:00N 44°38' E 037°49'3 5.2
2018-Jun-17 01:30N 44°40' E 037°48'0 0.0
2018-Jun-17 01:01N 44°40' E 037°48'0 0.0
2018-Jun-17 00:31N 44°40' E 037°48'0 0.0
2018-Jun-17 00:01N 44°40' E 037°48'0 0.0
2018-Jun-16 23:31N 44°40' E 037°48'0 0.0
2018-Jun-16 23:00N 44°40' E 037°48'0 0.0
2018-Jun-16 22:31N 44°40' E 037°48'0 0.0
2018-Jun-16 22:01N 44°40' E 037°48'0 0.0
2018-Jun-16 21:31N 44°40' E 037°48'0 0.0
2018-Jun-16 21:01N 44°40' E 037°48'0 0.0
2018-Jun-16 20:31N 44°40' E 037°48'0 0.0
2018-Jun-16 20:00N 44°40' E 037°48'0 0.0
2018-Jun-16 19:31N 44°40' E 037°48'0 0.0
2018-Jun-16 19:00N 44°40' E 037°48'0 0.0
2018-Jun-16 18:31N 44°40' E 037°48'0 0.0
2018-Jun-16 18:01N 44°40' E 037°48'0 0.0
2018-Jun-16 17:30N 44°40' E 037°48'0 0.0
2018-Jun-16 17:01N 44°40' E 037°48'0 0.0
2018-Jun-16 16:30N 44°40' E 037°48'4 8.8
2018-Jun-16 16:00N 44°37' E 037°51'5 9.6
2018-Jun-16 15:30N 44°33' E 037°56'2 4.2
2018-Jun-16 15:00N 44°32' E 037°58'2 3.0
2018-Jun-16 14:30N 44°31' E 038°00'1 2.4
2018-Jun-16 14:00N 44°32' E 037°59'2 3.1
2018-Jun-16 13:30N 44°32' E 037°57'0 0.5
2018-Jun-16 13:00N 44°32' E 037°56'1 2.2
2018-Jun-16 12:30N 44°32' E 037°58'2 3.1
2018-Jun-16 12:00N 44°31' E 037°60'2 3.1
2018-Jun-16 11:29N 44°30' E 038°01'1 1.5
2018-Jun-16 11:00N 44°30' E 038°02'0 0.2
2018-Jun-16 10:30N 44°30' E 038°02'1 1.1
2018-Jun-16 10:00N 44°30' E 038°01'2 3.2
2018-Jun-16 09:30N 44°31' E 037°60'2 3.1
2018-Jun-16 09:00N 44°32' E 037°58'2 3.2
2018-Jun-16 08:30N 44°33' E 037°56'1 1.8
2018-Jun-16 08:00N 44°32' E 037°57'2 3.0
2018-Jun-16 07:30N 44°32' E 037°59'1 3.0
2018-Jun-16 07:00N 44°31' E 038°00'0 0.6
2018-Jun-16 06:29N 44°31' E 038°00'1 1.8
2018-Jun-16 06:00N 44°31' E 037°59'2 3.1
2018-Jun-16 05:30N 44°32' E 037°57'2 3.2
2018-Jun-16 05:00N 44°33' E 037°55'2 3.1
2018-Jun-16 04:30N 44°34' E 037°54'2 3.1
2018-Jun-16 04:00N 44°35' E 037°52'2 3.1
2018-Jun-16 03:30N 44°35' E 037°50'2 3.1
2018-Jun-16 03:00N 44°36' E 037°48'2 3.9
2018-Jun-16 02:30N 44°38' E 037°47'3 5.7
2018-Jun-16 02:00N 44°40' E 037°48'0 0.0
2018-Jun-16 01:31N 44°40' E 037°48'0 0.0
2018-Jun-16 01:00N 44°40' E 037°48'0 0.0
2018-Jun-16 00:30N 44°40' E 037°48'0 0.0
2018-Jun-16 00:00N 44°40' E 037°48'0 0.0
2018-Jun-15 23:30N 44°40' E 037°48'0 0.0
2018-Jun-15 23:00N 44°40' E 037°48'0 0.0
2018-Jun-15 22:30N 44°40' E 037°48'0 0.0
2018-Jun-15 22:00N 44°40' E 037°48'0 0.0
2018-Jun-15 21:30N 44°40' E 037°48'0 0.0
2018-Jun-15 21:00N 44°40' E 037°48'0 0.0
2018-Jun-15 20:30N 44°40' E 037°48'0 0.0
2018-Jun-15 20:00N 44°40' E 037°48'0 0.0
2018-Jun-15 19:30N 44°40' E 037°48'0 0.0
2018-Jun-15 19:00N 44°40' E 037°48'0 0.0
2018-Jun-15 18:30N 44°40' E 037°48'0 0.0
2018-Jun-15 18:00N 44°40' E 037°48'0 0.0
2018-Jun-15 17:30N 44°40' E 037°48'0 0.0
2018-Jun-15 17:00N 44°40' E 037°48'0 0.0
2018-Jun-15 16:30N 44°40' E 037°48'0 0.0
2018-Jun-15 16:00N 44°40' E 037°48'0 0.0
2018-Jun-15 15:30N 44°40' E 037°48'0 0.0
2018-Jun-15 15:00N 44°40' E 037°48'0 0.0
2018-Jun-15 14:30N 44°40' E 037°48'0 0.0
2018-Jun-15 14:00N 44°40' E 037°48'0 0.0
2018-Jun-15 13:31N 44°40' E 037°48'0 0.0
2018-Jun-15 13:00N 44°40' E 037°48'0 0.0
2018-Jun-15 12:31N 44°40' E 037°48'0 0.0
2018-Jun-15 12:00N 44°40' E 037°48'0 0.0
2018-Jun-15 11:30N 44°40' E 037°48'0 0.0
2018-Jun-15 11:00N 44°40' E 037°48'0 0.0
2018-Jun-15 10:31N 44°40' E 037°48'0 0.0
2018-Jun-15 10:00N 44°40' E 037°48'0 0.0
2018-Jun-15 09:30N 44°40' E 037°48'0 0.0
2018-Jun-15 09:00N 44°40' E 037°48'0 0.0
2018-Jun-15 08:30N 44°40' E 037°48'0 0.0
2018-Jun-15 08:00N 44°40' E 037°48'0 0.0
2018-Jun-15 07:30N 44°40' E 037°48'0 0.0
2018-Jun-15 07:00N 44°40' E 037°48'0 0.0
2018-Jun-15 06:30N 44°40' E 037°48'0 0.0
2018-Jun-15 06:00N 44°40' E 037°48'0 0.0
2018-Jun-15 05:30N 44°40' E 037°48'0 0.0
2018-Jun-15 05:00N 44°40' E 037°48'0 0.0
2018-Jun-15 04:30N 44°40' E 037°48'0 0.0
2018-Jun-15 04:00N 44°40' E 037°48'0 0.0
2018-Jun-15 03:30N 44°40' E 037°48'0 0.0
2018-Jun-15 03:00N 44°40' E 037°48'0 0.0
2018-Jun-15 02:30N 44°40' E 037°48'0 0.0
2018-Jun-15 02:00N 44°40' E 037°48'0 0.0
2018-Jun-15 01:30N 44°40' E 037°48'0 0.0
2018-Jun-15 01:00N 44°40' E 037°48'0 0.0
2018-Jun-15 00:30N 44°40' E 037°48'0 0.0
2018-Jun-15 00:00N 44°40' E 037°48'0 0.0
2018-Jun-14 23:30N 44°40' E 037°48'0 0.0
2018-Jun-14 23:00N 44°40' E 037°48'0 0.0
2018-Jun-14 22:30N 44°40' E 037°48'0 0.0
2018-Jun-14 22:00N 44°40' E 037°48'0 0.0
2018-Jun-14 21:30N 44°40' E 037°48'0 0.0
2018-Jun-14 21:00N 44°40' E 037°48'0 0.0
2018-Jun-14 20:30N 44°40' E 037°48'0 0.0
2018-Jun-14 20:01N 44°40' E 037°48'0 0.0
2018-Jun-14 19:30N 44°40' E 037°48'0 0.0
2018-Jun-14 19:00N 44°40' E 037°48'0 0.0
2018-Jun-14 18:30N 44°40' E 037°48'0 0.0
2018-Jun-14 18:01N 44°40' E 037°48'0 0.0
2018-Jun-14 17:30N 44°40' E 037°48'0 0.0
2018-Jun-14 17:00N 44°40' E 037°48'0 0.0
2018-Jun-14 16:31N 44°40' E 037°48'0 0.0
2018-Jun-14 16:00N 44°40' E 037°48'0 0.0
2018-Jun-14 15:30N 44°40' E 037°48'0 0.0
2018-Jun-14 15:01N 44°40' E 037°48'0 0.0
2018-Jun-14 14:31N 44°40' E 037°48'0 0.0
2018-Jun-14 14:00N 44°40' E 037°48'0 0.0
2018-Jun-14 13:31N 44°40' E 037°48'0 0.0
2018-Jun-14 13:01N 44°40' E 037°48'0 0.0
2018-Jun-14 12:30N 44°40' E 037°48'0 0.0
2018-Jun-14 12:01N 44°40' E 037°48'0 0.0
2018-Jun-14 11:31N 44°40' E 037°48'0 0.0
2018-Jun-14 11:01N 44°40' E 037°48'0 0.0
2018-Jun-14 10:30N 44°40' E 037°48'0 0.0
2018-Jun-14 10:00N 44°40' E 037°48'3 6.2
2018-Jun-14 09:30N 44°38' E 037°51'510.0
2018-Jun-14 09:00N 44°34' E 037°56'5 9.9
2018-Jun-14 08:30N 44°31' E 038°01'5 9.8
2018-Jun-14 08:00N 44°28' E 038°06'5 9.9
2018-Jun-14 07:30N 44°25' E 038°11'1 1.2
2018-Jun-14 07:00N 44°24' E 038°12'2 3.2
2018-Jun-14 06:29N 44°25' E 038°10'2 3.2
2018-Jun-14 06:00N 44°26' E 038°08'2 3.2
2018-Jun-14 05:27N 44°27' E 038°06'1 3.2
2018-Jun-14 05:00N 44°27' E 038°04'2 3.3
2018-Jun-14 04:29N 44°29' E 038°03'2 3.3
2018-Jun-14 04:00N 44°31' E 038°03'2 3.2
2018-Jun-14 03:30N 44°32' E 038°01'2 3.3
2018-Jun-14 03:00N 44°33' E 037°59'3 6.7
2018-Jun-14 02:30N 44°34' E 037°55'5 9.4
2018-Jun-14 02:00N 44°37' E 037°51'3 6.8
2018-Jun-14 01:30N 44°40' E 037°48'0 0.0
2018-Jun-14 01:00N 44°40' E 037°48'0 0.0
2018-Jun-14 00:30N 44°40' E 037°48'0 0.0
2018-Jun-14 00:00N 44°40' E 037°48'0 0.0
2018-Jun-13 23:30N 44°40' E 037°48'0 0.0
2018-Jun-13 23:00N 44°40' E 037°48'0 0.0
2018-Jun-13 22:30N 44°40' E 037°48'0 0.0
2018-Jun-13 22:00N 44°40' E 037°48'0 0.0
2018-Jun-13 21:30N 44°40' E 037°48'0 0.0
2018-Jun-13 21:00N 44°40' E 037°48'0 0.0
2018-Jun-13 20:30N 44°40' E 037°48'0 0.0
2018-Jun-13 20:00N 44°40' E 037°48'0 0.0
2018-Jun-13 19:30N 44°40' E 037°48'0 0.0
2018-Jun-13 19:00N 44°40' E 037°48'0 0.0
2018-Jun-13 18:30N 44°40' E 037°48'0 0.0
2018-Jun-13 18:00N 44°40' E 037°48'0 0.0
2018-Jun-13 17:30N 44°40' E 037°48'0 0.0
2018-Jun-13 17:00N 44°40' E 037°48'0 0.0
2018-Jun-13 16:30N 44°40' E 037°48'0 0.1
2018-Jun-13 16:00N 44°40' E 037°48'4 8.2
2018-Jun-13 15:31N 44°37' E 037°52'5 9.5
2018-Jun-13 15:00N 44°34' E 037°57'5 9.6
2018-Jun-13 14:30N 44°31' E 038°02'5 9.4
2018-Jun-13 14:00N 44°27' E 038°06'3 7.0
2018-Jun-13 13:30N 44°25' E 038°10'1 2.4
2018-Jun-13 13:01N 44°25' E 038°08'2 3.3
2018-Jun-13 12:30N 44°27' E 038°07'2 3.3
2018-Jun-13 12:00N 44°28' E 038°06'2 3.3
2018-Jun-13 11:31N 44°29' E 038°04'2 3.2
2018-Jun-13 11:00N 44°31' E 038°03'2 3.1
2018-Jun-13 10:30N 44°32' E 038°02'2 3.3
2018-Jun-13 10:00N 44°33' E 037°60'1 2.6
2018-Jun-13 09:30N 44°32' E 037°58'2 3.1
2018-Jun-13 09:00N 44°30' E 037°60'2 3.2
2018-Jun-13 08:30N 44°29' E 038°01'2 3.2
2018-Jun-13 08:01N 44°28' E 038°03'2 3.2
2018-Jun-13 07:30N 44°27' E 038°04'3 3.1
2018-Jun-13 06:42N 44°26' E 038°07'1 3.3
2018-Jun-13 06:28N 44°25' E 038°08'1 1.1
2018-Jun-13 05:59N 44°25' E 038°09'1 2.2
2018-Jun-13 05:30N 44°25' E 038°07'2 3.1
2018-Jun-13 05:00N 44°26' E 038°05'2 3.2
2018-Jun-13 04:31N 44°27' E 038°04'2 3.1
2018-Jun-13 04:01N 44°28' E 038°02'2 3.2
2018-Jun-13 03:30N 44°30' E 038°01'2 3.1
2018-Jun-13 03:01N 44°31' E 037°60'2 3.1
2018-Jun-13 02:31N 44°32' E 037°58'3 6.6
2018-Jun-13 02:01N 44°33' E 038°03'0 0.0
2018-Jun-13 01:30N 44°33' E 038°03'0 0.0
2018-Jun-13 01:00N 44°33' E 038°03'0 0.0
2018-Jun-13 00:29N 44°33' E 038°03'0 0.0
2018-Jun-13 00:01N 44°33' E 038°03'0 0.0
2018-Jun-12 23:30N 44°33' E 038°03'0 0.0
2018-Jun-12 23:00N 44°33' E 038°03'0 0.0
2018-Jun-12 22:30N 44°33' E 038°03'0 0.0
2018-Jun-12 22:00N 44°33' E 038°03'0 0.0
2018-Jun-12 21:30N 44°33' E 038°03'0 0.0
2018-Jun-12 21:01N 44°33' E 038°03'0 0.0
2018-Jun-12 20:30N 44°33' E 038°03'0 0.0
2018-Jun-12 20:00N 44°33' E 038°03'0 0.0
2018-Jun-12 19:31N 44°33' E 038°03'0 0.0
2018-Jun-12 19:00N 44°33' E 038°03'0 0.0
2018-Jun-12 18:30N 44°33' E 038°03'0 0.0
2018-Jun-12 18:00N 44°33' E 038°03'0 0.0
2018-Jun-12 17:30N 44°33' E 038°03'3 5.7
2018-Jun-12 17:00N 44°31' E 037°59'0 1.0
2018-Jun-12 16:31N 44°31' E 037°59'2 3.1
2018-Jun-12 16:01N 44°30' E 038°01'2 3.1
2018-Jun-12 15:30N 44°28' E 038°02'1 2.5
2018-Jun-12 15:00N 44°27' E 038°03'1 3.0
2018-Jun-12 14:30N 44°29' E 038°02'2 3.2
2018-Jun-12 14:00N 44°30' E 038°01'2 3.1
2018-Jun-12 13:31N 44°31' E 037°59'1 1.2
2018-Jun-12 13:00N 44°32' E 037°60'1 2.0
2018-Jun-12 12:31N 44°31' E 038°00'1 3.0
2018-Jun-12 12:01N 44°29' E 038°01'1 3.0
2018-Jun-12 11:30N 44°28' E 038°02'1 3.0
2018-Jun-12 11:00N 44°27' E 038°03'1 2.8
2018-Jun-12 10:30N 44°27' E 038°05'2 3.7
2018-Jun-12 10:00N 44°29' E 038°05'1 2.9
2018-Jun-12 09:30N 44°28' E 038°07'2 3.3
2018-Jun-12 09:00N 44°27' E 038°09'2 3.2
2018-Jun-12 08:30N 44°25' E 038°10'2 3.1
2018-Jun-12 07:46N 44°24' E 038°12'1 3.1
2018-Jun-12 07:30N 44°23' E 038°14'2 3.1
2018-Jun-12 06:57N 44°23' E 038°16'1 0.9
2018-Jun-12 05:34N 44°23' E 038°14'0 3.3
2018-Jun-12 05:30N 44°24' E 038°14'2 3.2
2018-Jun-12 05:00N 44°24' E 038°12'2 3.1
2018-Jun-12 04:30N 44°25' E 038°10'1 2.9
2018-Jun-12 04:00N 44°26' E 038°08'2 3.2
2018-Jun-12 03:30N 44°27' E 038°07'2 3.3
2018-Jun-12 03:01N 44°29' E 038°06'4 8.9
2018-Jun-12 02:31N 44°32' E 038°02'5 9.7
2018-Jun-12 02:00N 44°35' E 037°56'5 9.5
2018-Jun-12 01:30N 44°38' E 037°51'3 0.4
2018-Jun-11 17:14N 44°40' E 037°48'1 3.5
2018-Jun-11 17:00N 44°40' E 037°49'5 9.8
2018-Jun-11 16:31N 44°37' E 037°54'5 9.8
2018-Jun-11 16:01N 44°33' E 037°59'5 9.8
2018-Jun-11 15:30N 44°30' E 038°04'5 9.7
2018-Jun-11 15:00N 44°26' E 038°09'7 7.2
2018-Jun-11 14:05N 44°23' E 038°17'0 2.1
2018-Jun-11 13:58N 44°23' E 038°17'2 0.8
2018-Jun-11 10:50N 44°22' E 038°20'0 0.1
2018-Jun-11 08:06N 44°22' E 038°21'1 3.2
2018-Jun-11 07:54N 44°22' E 038°20'1 3.1
2018-Jun-11 07:31N 44°22' E 038°18'2 1.0
2018-Jun-11 05:31N 44°23' E 038°15'0 2.6
2018-Jun-11 05:30N 44°23' E 038°15'2 3.1
2018-Jun-11 04:57N 44°24' E 038°13'1 3.0
2018-Jun-11 04:30N 44°25' E 038°11'2 3.3
2018-Jun-11 04:00N 44°26' E 038°10'2 3.1
2018-Jun-11 03:30N 44°27' E 038°08'2 3.3
2018-Jun-11 03:00N 44°28' E 038°07'4 8.7
2018-Jun-11 02:30N 44°31' E 038°03'510.0
2018-Jun-11 02:00N 44°34' E 037°57'5 9.7
2018-Jun-11 01:30N 44°37' E 037°52'4 0.4
2018-Jun-10 15:54N 44°40' E 037°48'2 5.8
2018-Jun-10 15:30N 44°39' E 037°50'5 9.4
2018-Jun-10 15:00N 44°36' E 037°55'5 9.1
2018-Jun-10 14:30N 44°33' E 038°00'9 9.1
2018-Jun-10 13:30N 44°26' E 038°09'5 9.2
2018-Jun-10 13:00N 44°23' E 038°14'0 0.2
2018-Jun-10 12:26N 44°23' E 038°14'0 1.0
2018-Jun-10 12:00N 44°23' E 038°15'2 3.2
2018-Jun-10 11:30N 44°23' E 038°17'2 3.1
2018-Jun-10 10:57N 44°22' E 038°19'2 3.1
2018-Jun-10 10:27N 44°22' E 038°21'2 0.6
2018-Jun-10 07:31N 44°22' E 038°19'0 3.1
2018-Jun-10 07:30N 44°22' E 038°19'2 3.1
2018-Jun-10 07:00N 44°23' E 038°17'2 1.9
2018-Jun-10 05:54N 44°24' E 038°14'1 3.2
2018-Jun-10 05:26N 44°24' E 038°12'1 3.1
2018-Jun-10 05:00N 44°25' E 038°10'2 3.2
2018-Jun-10 04:29N 44°26' E 038°08'2 3.3
2018-Jun-10 04:00N 44°27' E 038°07'3 6.6
2018-Jun-10 03:30N 44°30' E 038°04'5 9.3
2018-Jun-10 03:00N 44°33' E 037°60'5 9.9
2018-Jun-10 02:30N 44°36' E 037°54'510.0
2018-Jun-10 02:00N 44°39' E 037°49'1 2.3
2018-Jun-10 01:31N 44°40' E 037°48'0 0.0
2018-Jun-10 01:01N 44°40' E 037°48'0 0.0
2018-Jun-10 00:31N 44°40' E 037°48'0 0.0
2018-Jun-10 00:01N 44°40' E 037°48'0 0.0
2018-Jun-09 23:31N 44°40' E 037°48'0 0.0
2018-Jun-09 23:00N 44°40' E 037°48'0 0.0
2018-Jun-09 22:31N 44°40' E 037°48'0 0.0
2018-Jun-09 22:00N 44°40' E 037°48'0 0.0
2018-Jun-09 21:30N 44°40' E 037°48'0 0.0
2018-Jun-09 21:01N 44°40' E 037°48'0 0.0
2018-Jun-09 20:31N 44°40' E 037°48'0 0.0
2018-Jun-09 20:01N 44°40' E 037°48'0 0.0
2018-Jun-09 19:30N 44°40' E 037°48'0 0.0
2018-Jun-09 19:00N 44°40' E 037°48'0 0.0
2018-Jun-09 18:31N 44°40' E 037°48'0 0.0
2018-Jun-09 18:01N 44°40' E 037°48'0 0.0
2018-Jun-09 17:31N 44°40' E 037°48'0 0.0
2018-Jun-09 17:00N 44°40' E 037°48'0 0.0
2018-Jun-09 16:31N 44°40' E 037°48'0 0.0
2018-Jun-09 16:01N 44°40' E 037°48'0 0.0
2018-Jun-09 15:30N 44°40' E 037°48'0 0.0
2018-Jun-09 14:30N 44°40' E 037°48'1 1.0
2018-Jun-09 14:00N 44°40' E 037°49'5 9.5
2018-Jun-09 13:30N 44°37' E 037°54'5 9.3
2018-Jun-09 13:00N 44°34' E 037°59'4 7.4
2018-Jun-09 12:30N 44°32' E 038°03'0 0.8
2018-Jun-09 12:00N 44°32' E 038°02'0 0.7
2018-Jun-09 11:30N 44°32' E 038°02'3 5.6
2018-Jun-09 11:00N 44°30' E 038°05'5 9.7
2018-Jun-09 10:30N 44°26' E 038°09'810.0
2018-Jun-09 09:43N 44°22' E 038°19'2 9.8
2018-Jun-09 09:30N 44°21' E 038°21'1 2.1
2018-Jun-09 09:00N 44°21' E 038°23'1 0.7
2018-Jun-09 08:00N 44°21' E 038°22'2 4.3
2018-Jun-09 07:27N 44°23' E 038°19'  
Track history (hours):
 
Tides and Currents Weather Stations Pressure Air Temp Water Temp Dewpoint Dewpoint Depression Visibility Wind Speed Wind Dir Waves Ship Positions

Briz

Last reported at 2018-Jun-19 06:57 UTC. Time now 2018-Jun-19 06:59 UTC.
Position N 44°28' E 038°04'.

Length 28 m; draft 2 m.

Type: Fishing. MMSI: 273330120.

Date/timePositionNaut miles runAvg speedWind from/ knotsBaromVisibWave heightAir tempDewpointWater temp
2018-Jun-19 06:57N 44°28' E 038°04'2 3.2
2018-Jun-19 06:29N 44°27' E 038°05'0 0.3
2018-Jun-19 05:55N 44°26' E 038°06'0 0.7
2018-Jun-19 05:30N 44°26' E 038°06'2 3.0
2018-Jun-19 05:00N 44°27' E 038°04'2 3.1
2018-Jun-19 04:29N 44°28' E 038°02'1 3.1
2018-Jun-19 04:00N 44°30' E 038°01'2 3.1
2018-Jun-19 03:31N 44°31' E 037°60'2 3.0
2018-Jun-19 03:01N 44°32' E 037°58'3 6.7
2018-Jun-19 02:30N 44°34' E 037°55'5 9.7
2018-Jun-19 02:00N 44°38' E 037°51'3 5.8
2018-Jun-19 01:30N 44°40' E 037°48'0 0.0
2018-Jun-19 01:00N 44°40' E 037°48'0 0.0
2018-Jun-19 00:30N 44°40' E 037°48'0 0.0
2018-Jun-19 00:01N 44°40' E 037°48'0 0.0
2018-Jun-18 23:31N 44°40' E 037°48'0 0.0
2018-Jun-18 23:01N 44°40' E 037°48'0 0.0
2018-Jun-18 22:30N 44°40' E 037°48'0 0.0
2018-Jun-18 22:00N 44°40' E 037°48'0 0.0
2018-Jun-18 21:30N 44°40' E 037°48'0 0.0
2018-Jun-18 21:00N 44°40' E 037°48'0 0.0
2018-Jun-18 20:29N 44°40' E 037°48'0 0.0
2018-Jun-18 20:00N 44°40' E 037°48'0 0.0
2018-Jun-18 19:30N 44°40' E 037°48'2 3.6
2018-Jun-18 19:00N 44°39' E 037°49'5 9.9
2018-Jun-18 18:30N 44°35' E 037°54'510.2
2018-Jun-18 17:59N 44°32' E 037°60'510.1
2018-Jun-18 17:30N 44°28' E 038°05'5 9.8
2018-Jun-18 17:00N 44°25' E 038°10'4 4.4
2018-Jun-18 16:02N 44°23' E 038°15'0 2.1
2018-Jun-18 16:00N 44°23' E 038°15'2 3.0
2018-Jun-18 15:30N 44°23' E 038°17'5 1.9
2018-Jun-18 13:02N 44°21' E 038°24'1 1.5
2018-Jun-18 12:33N 44°22' E 038°23'2 3.2
2018-Jun-18 12:04N 44°22' E 038°21'2 3.2
2018-Jun-18 11:22N 44°23' E 038°18'3 3.4
2018-Jun-18 10:35N 44°24' E 038°14'0 3.5
2018-Jun-18 10:30N 44°24' E 038°14'4 7.4
2018-Jun-18 10:00N 44°25' E 038°09'5 9.4
2018-Jun-18 09:30N 44°29' E 038°05'1 1.9
2018-Jun-18 09:00N 44°28' E 038°04'2 3.1
2018-Jun-18 08:29N 44°27' E 038°05'2 3.1
2018-Jun-18 08:00N 44°26' E 038°07'3 3.0
2018-Jun-18 07:08N 44°24' E 038°10'0 1.0
2018-Jun-18 06:55N 44°24' E 038°10'2 4.2
2018-Jun-18 06:30N 44°25' E 038°08'1 2.4
2018-Jun-18 05:59N 44°26' E 038°07'2 3.2
2018-Jun-18 05:30N 44°27' E 038°05'2 3.2
2018-Jun-18 05:00N 44°28' E 038°04'2 3.2
2018-Jun-18 04:30N 44°29' E 038°02'2 3.1
2018-Jun-18 03:59N 44°30' E 038°01'1 3.1
2018-Jun-18 03:30N 44°31' E 037°59'2 3.3
2018-Jun-18 03:00N 44°32' E 037°57'5 9.5
2018-Jun-18 02:30N 44°36' E 037°53'5 9.4
2018-Jun-18 02:00N 44°40' E 037°49'1 1.6
2018-Jun-18 01:30N 44°40' E 037°48'0 0.0
2018-Jun-18 01:00N 44°40' E 037°48'0 0.0
2018-Jun-18 00:30N 44°40' E 037°48'0 0.0
2018-Jun-18 00:00N 44°40' E 037°48'0 0.0
2018-Jun-17 23:31N 44°40' E 037°48'0 0.0
2018-Jun-17 23:00N 44°40' E 037°48'0 0.0
2018-Jun-17 22:30N 44°40' E 037°48'0 0.0
2018-Jun-17 22:00N 44°40' E 037°48'0 0.0
2018-Jun-17 21:30N 44°40' E 037°48'0 0.0
2018-Jun-17 21:00N 44°40' E 037°48'0 0.0
2018-Jun-17 20:30N 44°40' E 037°48'0 0.0
2018-Jun-17 20:00N 44°40' E 037°48'0 0.0
2018-Jun-17 19:30N 44°40' E 037°48'0 0.0
2018-Jun-17 19:00N 44°40' E 037°48'0 0.0
2018-Jun-17 18:30N 44°40' E 037°48'0 0.0
2018-Jun-17 18:00N 44°40' E 037°48'0 0.0
2018-Jun-17 17:30N 44°40' E 037°48'4 7.8
2018-Jun-17 17:00N 44°37' E 037°52'510.0
2018-Jun-17 16:30N 44°34' E 037°56'5 9.0
2018-Jun-17 16:00N 44°30' E 038°01'1 1.7
2018-Jun-17 15:29N 44°30' E 038°02'2 3.3
2018-Jun-17 15:00N 44°29' E 038°03'2 3.3
2018-Jun-17 14:30N 44°27' E 038°05'0 0.1
2018-Jun-17 13:57N 44°27' E 038°05'1 1.8
2018-Jun-17 13:30N 44°28' E 038°04'2 3.0
2018-Jun-17 13:00N 44°29' E 038°03'2 3.0
2018-Jun-17 12:30N 44°30' E 038°01'2 3.1
2018-Jun-17 12:00N 44°31' E 037°60'1 2.0
2018-Jun-17 11:30N 44°30' E 038°00'2 3.2
2018-Jun-17 11:00N 44°29' E 038°02'2 3.5
2018-Jun-17 10:22N 44°27' E 038°04'0 0.8
2018-Jun-17 09:59N 44°28' E 038°04'0 0.3
2018-Jun-17 09:30N 44°28' E 038°04'0 0.7
2018-Jun-17 08:56N 44°28' E 038°03'1 3.0
2018-Jun-17 08:30N 44°29' E 038°02'2 3.0
2018-Jun-17 08:00N 44°30' E 038°01'1 3.0
2018-Jun-17 07:30N 44°31' E 037°60'1 1.5
2018-Jun-17 07:00N 44°32' E 037°59'2 3.3
2018-Jun-17 06:30N 44°31' E 038°01'2 3.3
2018-Jun-17 06:00N 44°29' E 038°02'0 0.4
2018-Jun-17 05:30N 44°29' E 038°02'1 1.7
2018-Jun-17 05:00N 44°30' E 038°01'2 3.0
2018-Jun-17 04:31N 44°31' E 037°59'2 3.0
2018-Jun-17 04:00N 44°32' E 037°58'2 3.1
2018-Jun-17 03:30N 44°33' E 037°56'2 3.1
2018-Jun-17 03:00N 44°34' E 037°54'2 3.1
2018-Jun-17 02:30N 44°34' E 037°52'4 8.0
2018-Jun-17 02:00N 44°38' E 037°49'3 5.2
2018-Jun-17 01:30N 44°40' E 037°48'0 0.0
2018-Jun-17 01:01N 44°40' E 037°48'0 0.0
2018-Jun-17 00:31N 44°40' E 037°48'0 0.0
2018-Jun-17 00:01N 44°40' E 037°48'0 0.0
2018-Jun-16 23:31N 44°40' E 037°48'0 0.0
2018-Jun-16 23:00N 44°40' E 037°48'0 0.0
2018-Jun-16 22:31N 44°40' E 037°48'0 0.0
2018-Jun-16 22:01N 44°40' E 037°48'0 0.0
2018-Jun-16 21:31N 44°40' E 037°48'0 0.0
2018-Jun-16 21:01N 44°40' E 037°48'0 0.0
2018-Jun-16 20:31N 44°40' E 037°48'0 0.0
2018-Jun-16 20:00N 44°40' E 037°48'0 0.0
2018-Jun-16 19:31N 44°40' E 037°48'0 0.0
2018-Jun-16 19:00N 44°40' E 037°48'0 0.0
2018-Jun-16 18:31N 44°40' E 037°48'0 0.0
2018-Jun-16 18:01N 44°40' E 037°48'0 0.0
2018-Jun-16 17:30N 44°40' E 037°48'0 0.0
2018-Jun-16 17:01N 44°40' E 037°48'0 0.0
2018-Jun-16 16:30N 44°40' E 037°48'4 8.8
2018-Jun-16 16:00N 44°37' E 037°51'5 9.6
2018-Jun-16 15:30N 44°33' E 037°56'2 4.2
2018-Jun-16 15:00N 44°32' E 037°58'2 3.0
2018-Jun-16 14:30N 44°31' E 038°00'1 2.4
2018-Jun-16 14:00N 44°32' E 037°59'2 3.1
2018-Jun-16 13:30N 44°32' E 037°57'0 0.5
2018-Jun-16 13:00N 44°32' E 037°56'1 2.2
2018-Jun-16 12:30N 44°32' E 037°58'2 3.1
2018-Jun-16 12:00N 44°31' E 037°60'2 3.1
2018-Jun-16 11:29N 44°30' E 038°01'1 1.5
2018-Jun-16 11:00N 44°30' E 038°02'0 0.2
2018-Jun-16 10:30N 44°30' E 038°02'1 1.1
2018-Jun-16 10:00N 44°30' E 038°01'2 3.2
2018-Jun-16 09:30N 44°31' E 037°60'2 3.1
2018-Jun-16 09:00N 44°32' E 037°58'2 3.2
2018-Jun-16 08:30N 44°33' E 037°56'1 1.8
2018-Jun-16 08:00N 44°32' E 037°57'2 3.0
2018-Jun-16 07:30N 44°32' E 037°59'1 3.0
2018-Jun-16 07:00N 44°31' E 038°00'0 0.6
2018-Jun-16 06:29N 44°31' E 038°00'1 1.8
2018-Jun-16 06:00N 44°31' E 037°59'2 3.1
2018-Jun-16 05:30N 44°32' E 037°57'2 3.2
2018-Jun-16 05:00N 44°33' E 037°55'2 3.1
2018-Jun-16 04:30N 44°34' E 037°54'2 3.1
2018-Jun-16 04:00N 44°35' E 037°52'2 3.1
2018-Jun-16 03:30N 44°35' E 037°50'2 3.1
2018-Jun-16 03:00N 44°36' E 037°48'2 3.9
2018-Jun-16 02:30N 44°38' E 037°47'3 5.7
2018-Jun-16 02:00N 44°40' E 037°48'0 0.0
2018-Jun-16 01:31N 44°40' E 037°48'0 0.0
2018-Jun-16 01:00N 44°40' E 037°48'0 0.0
2018-Jun-16 00:30N 44°40' E 037°48'0 0.0
2018-Jun-16 00:00N 44°40' E 037°48'0 0.0
2018-Jun-15 23:30N 44°40' E 037°48'0 0.0
2018-Jun-15 23:00N 44°40' E 037°48'0 0.0
2018-Jun-15 22:30N 44°40' E 037°48'0 0.0
2018-Jun-15 22:00N 44°40' E 037°48'0 0.0
2018-Jun-15 21:30N 44°40' E 037°48'0 0.0
2018-Jun-15 21:00N 44°40' E 037°48'0 0.0
2018-Jun-15 20:30N 44°40' E 037°48'0 0.0
2018-Jun-15 20:00N 44°40' E 037°48'0 0.0
2018-Jun-15 19:30N 44°40' E 037°48'0 0.0
2018-Jun-15 19:00N 44°40' E 037°48'0 0.0
2018-Jun-15 18:30N 44°40' E 037°48'0 0.0
2018-Jun-15 18:00N 44°40' E 037°48'0 0.0
2018-Jun-15 17:30N 44°40' E 037°48'0 0.0
2018-Jun-15 17:00N 44°40' E 037°48'0 0.0
2018-Jun-15 16:30N 44°40' E 037°48'0 0.0
2018-Jun-15 16:00N 44°40' E 037°48'0 0.0
2018-Jun-15 15:30N 44°40' E 037°48'0 0.0
2018-Jun-15 15:00N 44°40' E 037°48'0 0.0
2018-Jun-15 14:30N 44°40' E 037°48'0 0.0
2018-Jun-15 14:00N 44°40' E 037°48'0 0.0
2018-Jun-15 13:31N 44°40' E 037°48'0 0.0
2018-Jun-15 13:00N 44°40' E 037°48'0 0.0
2018-Jun-15 12:31N 44°40' E 037°48'0 0.0
2018-Jun-15 12:00N 44°40' E 037°48'0 0.0
2018-Jun-15 11:30N 44°40' E 037°48'0 0.0
2018-Jun-15 11:00N 44°40' E 037°48'0 0.0
2018-Jun-15 10:31N 44°40' E 037°48'0 0.0
2018-Jun-15 10:00N 44°40' E 037°48'0 0.0
2018-Jun-15 09:30N 44°40' E 037°48'0 0.0
2018-Jun-15 09:00N 44°40' E 037°48'0 0.0
2018-Jun-15 08:30N 44°40' E 037°48'0 0.0
2018-Jun-15 08:00N 44°40' E 037°48'0 0.0
2018-Jun-15 07:30N 44°40' E 037°48'0 0.0
2018-Jun-15 07:00N 44°40' E 037°48'0 0.0
2018-Jun-15 06:30N 44°40' E 037°48'0 0.0
2018-Jun-15 06:00N 44°40' E 037°48'0 0.0
2018-Jun-15 05:30N 44°40' E 037°48'0 0.0
2018-Jun-15 05:00N 44°40' E 037°48'0 0.0
2018-Jun-15 04:30N 44°40' E 037°48'0 0.0
2018-Jun-15 04:00N 44°40' E 037°48'0 0.0
2018-Jun-15 03:30N 44°40' E 037°48'0 0.0
2018-Jun-15 03:00N 44°40' E 037°48'0 0.0
2018-Jun-15 02:30N 44°40' E 037°48'0 0.0
2018-Jun-15 02:00N 44°40' E 037°48'0 0.0
2018-Jun-15 01:30N 44°40' E 037°48'0 0.0
2018-Jun-15 01:00N 44°40' E 037°48'0 0.0
2018-Jun-15 00:30N 44°40' E 037°48'0 0.0
2018-Jun-15 00:00N 44°40' E 037°48'0 0.0
2018-Jun-14 23:30N 44°40' E 037°48'0 0.0
2018-Jun-14 23:00N 44°40' E 037°48'0 0.0
2018-Jun-14 22:30N 44°40' E 037°48'0 0.0
2018-Jun-14 22:00N 44°40' E 037°48'0 0.0
2018-Jun-14 21:30N 44°40' E 037°48'0 0.0
2018-Jun-14 21:00N 44°40' E 037°48'0 0.0
2018-Jun-14 20:30N 44°40' E 037°48'0 0.0
2018-Jun-14 20:01N 44°40' E 037°48'0 0.0
2018-Jun-14 19:30N 44°40' E 037°48'0 0.0
2018-Jun-14 19:00N 44°40' E 037°48'0 0.0
2018-Jun-14 18:30N 44°40' E 037°48'0 0.0
2018-Jun-14 18:01N 44°40' E 037°48'0 0.0
2018-Jun-14 17:30N 44°40' E 037°48'0 0.0
2018-Jun-14 17:00N 44°40' E 037°48'0 0.0
2018-Jun-14 16:31N 44°40' E 037°48'0 0.0
2018-Jun-14 16:00N 44°40' E 037°48'0 0.0
2018-Jun-14 15:30N 44°40' E 037°48'0 0.0
2018-Jun-14 15:01N 44°40' E 037°48'0 0.0
2018-Jun-14 14:31N 44°40' E 037°48'0 0.0
2018-Jun-14 14:00N 44°40' E 037°48'0 0.0
2018-Jun-14 13:31N 44°40' E 037°48'0 0.0
2018-Jun-14 13:01N 44°40' E 037°48'0 0.0
2018-Jun-14 12:30N 44°40' E 037°48'0 0.0
2018-Jun-14 12:01N 44°40' E 037°48'0 0.0
2018-Jun-14 11:31N 44°40' E 037°48'0 0.0
2018-Jun-14 11:01N 44°40' E 037°48'0 0.0
2018-Jun-14 10:30N 44°40' E 037°48'0 0.0
2018-Jun-14 10:00N 44°40' E 037°48'3 6.2
2018-Jun-14 09:30N 44°38' E 037°51'510.0
2018-Jun-14 09:00N 44°34' E 037°56'5 9.9
2018-Jun-14 08:30N 44°31' E 038°01'5 9.8
2018-Jun-14 08:00N 44°28' E 038°06'5 9.9
2018-Jun-14 07:30N 44°25' E 038°11'1 1.2
2018-Jun-14 07:00N 44°24' E 038°12'2 3.2
2018-Jun-14 06:29N 44°25' E 038°10'2 3.2
2018-Jun-14 06:00N 44°26' E 038°08'2 3.2
2018-Jun-14 05:27N 44°27' E 038°06'1 3.2
2018-Jun-14 05:00N 44°27' E 038°04'2 3.3
2018-Jun-14 04:29N 44°29' E 038°03'2 3.3
2018-Jun-14 04:00N 44°31' E 038°03'2 3.2
2018-Jun-14 03:30N 44°32' E 038°01'2 3.3
2018-Jun-14 03:00N 44°33' E 037°59'3 6.7
2018-Jun-14 02:30N 44°34' E 037°55'5 9.4
2018-Jun-14 02:00N 44°37' E 037°51'3 6.8
2018-Jun-14 01:30N 44°40' E 037°48'0 0.0
2018-Jun-14 01:00N 44°40' E 037°48'0 0.0
2018-Jun-14 00:30N 44°40' E 037°48'0 0.0
2018-Jun-14 00:00N 44°40' E 037°48'0 0.0
2018-Jun-13 23:30N 44°40' E 037°48'0 0.0
2018-Jun-13 23:00N 44°40' E 037°48'0 0.0
2018-Jun-13 22:30N 44°40' E 037°48'0 0.0
2018-Jun-13 22:00N 44°40' E 037°48'0 0.0
2018-Jun-13 21:30N 44°40' E 037°48'0 0.0
2018-Jun-13 21:00N 44°40' E 037°48'0 0.0
2018-Jun-13 20:30N 44°40' E 037°48'0 0.0
2018-Jun-13 20:00N 44°40' E 037°48'0 0.0
2018-Jun-13 19:30N 44°40' E 037°48'0 0.0
2018-Jun-13 19:00N 44°40' E 037°48'0 0.0
2018-Jun-13 18:30N 44°40' E 037°48'0 0.0
2018-Jun-13 18:00N 44°40' E 037°48'0 0.0
2018-Jun-13 17:30N 44°40' E 037°48'0 0.0
2018-Jun-13 17:00N 44°40' E 037°48'0 0.0
2018-Jun-13 16:30N 44°40' E 037°48'0 0.1
2018-Jun-13 16:00N 44°40' E 037°48'4 8.2
2018-Jun-13 15:31N 44°37' E 037°52'5 9.5
2018-Jun-13 15:00N 44°34' E 037°57'5 9.6
2018-Jun-13 14:30N 44°31' E 038°02'5 9.4
2018-Jun-13 14:00N 44°27' E 038°06'3 7.0
2018-Jun-13 13:30N 44°25' E 038°10'1 2.4
2018-Jun-13 13:01N 44°25' E 038°08'2 3.3
2018-Jun-13 12:30N 44°27' E 038°07'2 3.3
2018-Jun-13 12:00N 44°28' E 038°06'2 3.3
2018-Jun-13 11:31N 44°29' E 038°04'2 3.2
2018-Jun-13 11:00N 44°31' E 038°03'2 3.1
2018-Jun-13 10:30N 44°32' E 038°02'2 3.3
2018-Jun-13 10:00N 44°33' E 037°60'1 2.6
2018-Jun-13 09:30N 44°32' E 037°58'2 3.1
2018-Jun-13 09:00N 44°30' E 037°60'2 3.2
2018-Jun-13 08:30N 44°29' E 038°01'2 3.2
2018-Jun-13 08:01N 44°28' E 038°03'2 3.2
2018-Jun-13 07:30N 44°27' E 038°04'3 3.1
2018-Jun-13 06:42N 44°26' E 038°07'1 3.3
2018-Jun-13 06:28N 44°25' E 038°08'1 1.1
2018-Jun-13 05:59N 44°25' E 038°09'1 2.2
2018-Jun-13 05:30N 44°25' E 038°07'2 3.1
2018-Jun-13 05:00N 44°26' E 038°05'2 3.2
2018-Jun-13 04:31N 44°27' E 038°04'2 3.1
2018-Jun-13 04:01N 44°28' E 038°02'2 3.2
2018-Jun-13 03:30N 44°30' E 038°01'2 3.1
2018-Jun-13 03:01N 44°31' E 037°60'2 3.1
2018-Jun-13 02:31N 44°32' E 037°58'3 6.6
2018-Jun-13 02:01N 44°33' E 038°03'0 0.0
2018-Jun-13 01:30N 44°33' E 038°03'0 0.0
2018-Jun-13 01:00N 44°33' E 038°03'0 0.0
2018-Jun-13 00:29N 44°33' E 038°03'0 0.0
2018-Jun-13 00:01N 44°33' E 038°03'0 0.0
2018-Jun-12 23:30N 44°33' E 038°03'0 0.0
2018-Jun-12 23:00N 44°33' E 038°03'0 0.0
2018-Jun-12 22:30N 44°33' E 038°03'0 0.0
2018-Jun-12 22:00N 44°33' E 038°03'0 0.0
2018-Jun-12 21:30N 44°33' E 038°03'0 0.0
2018-Jun-12 21:01N 44°33' E 038°03'0 0.0
2018-Jun-12 20:30N 44°33' E 038°03'0 0.0
2018-Jun-12 20:00N 44°33' E 038°03'0 0.0
2018-Jun-12 19:31N 44°33' E 038°03'0 0.0
2018-Jun-12 19:00N 44°33' E 038°03'0 0.0
2018-Jun-12 18:30N 44°33' E 038°03'0 0.0
2018-Jun-12 18:00N 44°33' E 038°03'0 0.0
2018-Jun-12 17:30N 44°33' E 038°03'3 5.7
2018-Jun-12 17:00N 44°31' E 037°59'0 1.0
2018-Jun-12 16:31N 44°31' E 037°59'2 3.1
2018-Jun-12 16:01N 44°30' E 038°01'2 3.1
2018-Jun-12 15:30N 44°28' E 038°02'1 2.5
2018-Jun-12 15:00N 44°27' E 038°03'1 3.0
2018-Jun-12 14:30N 44°29' E 038°02'2 3.2
2018-Jun-12 14:00N 44°30' E 038°01'2 3.1
2018-Jun-12 13:31N 44°31' E 037°59'1 1.2
2018-Jun-12 13:00N 44°32' E 037°60'1 2.0
2018-Jun-12 12:31N 44°31' E 038°00'1 3.0
2018-Jun-12 12:01N 44°29' E 038°01'1 3.0
2018-Jun-12 11:30N 44°28' E 038°02'1 3.0
2018-Jun-12 11:00N 44°27' E 038°03'1 2.8
2018-Jun-12 10:30N 44°27' E 038°05'2 3.7
2018-Jun-12 10:00N 44°29' E 038°05'1 2.9
2018-Jun-12 09:30N 44°28' E 038°07'2 3.3
2018-Jun-12 09:00N 44°27' E 038°09'2 3.2
2018-Jun-12 08:30N 44°25' E 038°10'2 3.1
2018-Jun-12 07:46N 44°24' E 038°12'1 3.1
2018-Jun-12 07:30N 44°23' E 038°14'2 3.1
2018-Jun-12 06:57N 44°23' E 038°16'1 0.9
2018-Jun-12 05:34N 44°23' E 038°14'0 3.3
2018-Jun-12 05:30N 44°24' E 038°14'2 3.2
2018-Jun-12 05:00N 44°24' E 038°12'2 3.1
2018-Jun-12 04:30N 44°25' E 038°10'1 2.9
2018-Jun-12 04:00N 44°26' E 038°08'2 3.2
2018-Jun-12 03:30N 44°27' E 038°07'2 3.3
2018-Jun-12 03:01N 44°29' E 038°06'4 8.9
2018-Jun-12 02:31N 44°32' E 038°02'5 9.7
2018-Jun-12 02:00N 44°35' E 037°56'5 9.5
2018-Jun-12 01:30N 44°38' E 037°51'3 0.4
2018-Jun-11 17:14N 44°40' E 037°48'1 3.5
2018-Jun-11 17:00N 44°40' E 037°49'5 9.8
2018-Jun-11 16:31N 44°37' E 037°54'5 9.8
2018-Jun-11 16:01N 44°33' E 037°59'5 9.8
2018-Jun-11 15:30N 44°30' E 038°04'5 9.7
2018-Jun-11 15:00N 44°26' E 038°09'7 7.2
2018-Jun-11 14:05N 44°23' E 038°17'0 2.1
2018-Jun-11 13:58N 44°23' E 038°17'2 0.8
2018-Jun-11 10:50N 44°22' E 038°20'0 0.1
2018-Jun-11 08:06N 44°22' E 038°21'1 3.2
2018-Jun-11 07:54N 44°22' E 038°20'1 3.1
2018-Jun-11 07:31N 44°22' E 038°18'2 1.0
2018-Jun-11 05:31N 44°23' E 038°15'0 2.6
2018-Jun-11 05:30N 44°23' E 038°15'2 3.1
2018-Jun-11 04:57N 44°24' E 038°13'1 3.0
2018-Jun-11 04:30N 44°25' E 038°11'2 3.3
2018-Jun-11 04:00N 44°26' E 038°10'2 3.1
2018-Jun-11 03:30N 44°27' E 038°08'2 3.3
2018-Jun-11 03:00N 44°28' E 038°07'4 8.7
2018-Jun-11 02:30N 44°31' E 038°03'510.0
2018-Jun-11 02:00N 44°34' E 037°57'5 9.7
2018-Jun-11 01:30N 44°37' E 037°52'4 0.4
2018-Jun-10 15:54N 44°40' E 037°48'2 5.8
2018-Jun-10 15:30N 44°39' E 037°50'5 9.4
2018-Jun-10 15:00N 44°36' E 037°55'5 9.1
2018-Jun-10 14:30N 44°33' E 038°00'9 9.1
2018-Jun-10 13:30N 44°26' E 038°09'5 9.2
2018-Jun-10 13:00N 44°23' E 038°14'0 0.2
2018-Jun-10 12:26N 44°23' E 038°14'0 1.0
2018-Jun-10 12:00N 44°23' E 038°15'2 3.2
2018-Jun-10 11:30N 44°23' E 038°17'2 3.1
2018-Jun-10 10:57N 44°22' E 038°19'2 3.1
2018-Jun-10 10:27N 44°22' E 038°21'2 0.6
2018-Jun-10 07:31N 44°22' E 038°19'0 3.1
2018-Jun-10 07:30N 44°22' E 038°19'2 3.1
2018-Jun-10 07:00N 44°23' E 038°17'2 1.9
2018-Jun-10 05:54N 44°24' E 038°14'1 3.2
2018-Jun-10 05:26N 44°24' E 038°12'1 3.1
2018-Jun-10 05:00N 44°25' E 038°10'2 3.2
2018-Jun-10 04:29N 44°26' E 038°08'2 3.3
2018-Jun-10 04:00N 44°27' E 038°07'3 6.6
2018-Jun-10 03:30N 44°30' E 038°04'5 9.3
2018-Jun-10 03:00N 44°33' E 037°60'5 9.9
2018-Jun-10 02:30N 44°36' E 037°54'510.0
2018-Jun-10 02:00N 44°39' E 037°49'1 2.3
2018-Jun-10 01:31N 44°40' E 037°48'0 0.0
2018-Jun-10 01:01N 44°40' E 037°48'0 0.0
2018-Jun-10 00:31N 44°40' E 037°48'0 0.0
2018-Jun-10 00:01N 44°40' E 037°48'0 0.0
2018-Jun-09 23:31N 44°40' E 037°48'0 0.0
2018-Jun-09 23:00N 44°40' E 037°48'0 0.0
2018-Jun-09 22:31N 44°40' E 037°48'0 0.0
2018-Jun-09 22:00N 44°40' E 037°48'0 0.0
2018-Jun-09 21:30N 44°40' E 037°48'0 0.0
2018-Jun-09 21:01N 44°40' E 037°48'0 0.0
2018-Jun-09 20:31N 44°40' E 037°48'0 0.0
2018-Jun-09 20:01N 44°40' E 037°48'0 0.0
2018-Jun-09 19:30N 44°40' E 037°48'0 0.0
2018-Jun-09 19:00N 44°40' E 037°48'0 0.0
2018-Jun-09 18:31N 44°40' E 037°48'0 0.0
2018-Jun-09 18:01N 44°40' E 037°48'0 0.0
2018-Jun-09 17:31N 44°40' E 037°48'0 0.0
2018-Jun-09 17:00N 44°40' E 037°48'0 0.0
2018-Jun-09 16:31N 44°40' E 037°48'0 0.0
2018-Jun-09 16:01N 44°40' E 037°48'0 0.0
2018-Jun-09 15:30N 44°40' E 037°48'0 0.0
2018-Jun-09 14:30N 44°40' E 037°48'1 1.0
2018-Jun-09 14:00N 44°40' E 037°49'5 9.5
2018-Jun-09 13:30N 44°37' E 037°54'5 9.3
2018-Jun-09 13:00N 44°34' E 037°59'4 7.4
2018-Jun-09 12:30N 44°32' E 038°03'0 0.8
2018-Jun-09 12:00N 44°32' E 038°02'0 0.7
2018-Jun-09 11:30N 44°32' E 038°02'3 5.6
2018-Jun-09 11:00N 44°30' E 038°05'5 9.7
2018-Jun-09 10:30N 44°26' E 038°09'810.0
2018-Jun-09 09:43N 44°22' E 038°19'2 9.8
2018-Jun-09 09:30N 44°21' E 038°21'1 2.1
2018-Jun-09 09:00N 44°21' E 038°23'1 0.7
2018-Jun-09 08:00N 44°21' E 038°22'2 4.3
2018-Jun-09 07:27N 44°23' E 038°19'  

Dump ship's entire track history